createdAt,value
2023-03-06T00:00:30.131Z,11.10
2023-03-06T00:02:58.056Z,11.60
2023-03-06T00:05:33.683Z,12.07
2023-03-06T00:08:00.645Z,14.05
2023-03-06T00:10:31.365Z,11.40
2023-03-06T00:13:01.006Z,12.55
2023-03-06T00:15:28.460Z,16.48
2023-03-06T00:17:57.842Z,19.75
2023-03-06T00:20:25.934Z,12.48
2023-03-06T00:25:21.652Z,15.70
2023-03-06T00:27:49.206Z,14.07
2023-03-06T00:30:19.997Z,11.35
2023-03-06T00:32:46.946Z,12.20
2023-03-06T00:35:14.565Z,17.27
2023-03-06T00:37:41.689Z,18.35
2023-03-06T00:40:11.603Z,10.98
2023-03-06T00:42:42.086Z,14.15
2023-03-06T00:45:09.764Z,17.63
2023-03-06T00:47:36.648Z,13.07
2023-03-06T00:50:04.754Z,16.58
2023-03-06T00:52:31.788Z,11.50
2023-03-06T00:55:02.725Z,15.55
2023-03-06T00:57:29.414Z,13.07
2023-03-06T00:59:56.066Z,15.10
2023-03-06T01:02:22.831Z,11.70
2023-03-06T01:04:49.717Z,15.00
2023-03-06T01:07:16.428Z,13.93
2023-03-06T01:09:43.162Z,14.15
2023-03-06T01:12:10.559Z,14.48
2023-03-06T01:14:37.745Z,16.15
2023-03-06T01:17:04.932Z,19.55
2023-03-06T01:19:31.857Z,14.48
2023-03-06T01:22:00.131Z,11.75
2023-03-06T01:24:26.898Z,14.75
2023-03-06T01:26:53.389Z,18.95
2023-03-06T01:29:20.657Z,15.65
2023-03-06T01:34:19.036Z,16.98
2023-03-06T01:36:45.854Z,16.58
2023-03-06T01:39:12.595Z,14.93
2023-03-06T01:41:39.718Z,18.25
2023-03-06T01:44:06.600Z,19.90
2023-03-06T01:46:42.205Z,14.98
2023-03-06T01:49:14.747Z,12.07
2023-03-06T01:51:48.961Z,13.93
2023-03-06T01:54:29.295Z,17.00
2023-03-06T01:57:06.167Z,17.33
2023-03-06T01:59:37.049Z,13.60
2023-03-06T02:02:07.181Z,16.60
2023-03-06T02:04:34.626Z,14.15
2023-03-06T02:07:04.994Z,12.30
2023-03-06T02:09:34.425Z,15.45
2023-03-06T02:12:03.088Z,16.20
2023-03-06T02:14:30.655Z,16.38
2023-03-06T02:16:57.620Z,13.50
2023-03-06T02:19:46.333Z,15.30
2023-03-06T02:22:13.021Z,15.05
2023-03-06T02:24:50.225Z,12.95
2023-03-06T02:27:20.968Z,16.75
2023-03-06T02:29:49.285Z,16.42
2023-03-06T02:32:16.014Z,15.18
2023-03-06T02:34:50.259Z,18.85
2023-03-06T02:37:17.334Z,13.27
2023-03-06T02:39:50.022Z,12.00
2023-03-06T02:42:19.724Z,16.52
2023-03-06T02:44:47.508Z,15.23
2023-03-06T02:47:24.467Z,17.88
2023-03-06T02:49:51.252Z,16.98
2023-03-06T02:52:18.650Z,13.85
2023-03-06T02:54:45.483Z,14.18
2023-03-06T02:57:12.443Z,19.55
2023-03-06T02:59:39.144Z,14.88
2023-03-06T03:02:06.060Z,18.35
2023-03-06T03:04:32.772Z,14.82
2023-03-06T03:07:00.667Z,15.45
2023-03-06T03:09:28.498Z,18.52
2023-03-06T03:11:55.264Z,17.88
2023-03-06T03:14:24.505Z,17.30
2023-03-06T03:16:51.224Z,13.80
2023-03-06T03:19:17.922Z,17.38
2023-03-06T03:21:45.010Z,15.80
2023-03-06T03:24:12.119Z,20.83
2023-03-06T03:26:38.822Z,19.15
2023-03-06T03:29:05.622Z,21.38
2023-03-06T03:31:32.726Z,17.67
2023-03-06T03:34:00.324Z,19.80
2023-03-06T03:36:27.965Z,14.55
2023-03-06T03:38:54.830Z,18.70
2023-03-06T03:41:22.085Z,19.90
2023-03-06T03:43:48.892Z,20.40
2023-03-06T03:46:15.715Z,16.98
2023-03-06T03:48:42.643Z,17.15
2023-03-06T03:51:12.198Z,25.15
2023-03-06T03:53:39.464Z,19.15
2023-03-06T03:56:07.089Z,23.20
2023-03-06T03:58:33.917Z,25.15
2023-03-06T04:01:04.042Z,18.65
2023-03-06T04:03:30.758Z,23.02
2023-03-06T04:05:58.234Z,20.23
2023-03-06T04:08:26.022Z,22.90
2023-03-06T04:10:55.493Z,23.02
2023-03-06T04:13:23.096Z,20.38
2023-03-06T04:18:19.446Z,23.13
2023-03-06T04:20:47.763Z,17.35
2023-03-06T04:23:17.725Z,23.42
2023-03-06T04:25:45.079Z,29.30
2023-03-06T04:28:12.449Z,25.92
2023-03-06T04:30:39.280Z,24.60
2023-03-06T04:33:06.137Z,23.05
2023-03-06T04:35:35.173Z,28.27
2023-03-06T04:38:02.397Z,27.30
2023-03-06T04:40:31.483Z,26.42
2023-03-06T04:43:00.588Z,25.90
2023-03-06T04:45:28.752Z,26.98
2023-03-06T04:47:56.318Z,26.05
2023-03-06T04:50:24.791Z,29.20
2023-03-06T04:55:19.988Z,27.30
2023-03-06T04:57:47.705Z,26.08
2023-03-06T05:00:23.318Z,28.00
2023-03-06T05:05:19.771Z,23.65
2023-03-06T05:07:46.581Z,26.10
2023-03-06T05:10:15.962Z,28.92
2023-03-06T05:12:43.680Z,30.90
2023-03-06T05:15:12.092Z,26.23
2023-03-06T05:17:38.867Z,30.10
2023-03-06T05:20:09.211Z,23.80
2023-03-06T05:22:36.017Z,25.05
2023-03-06T05:25:03.447Z,31.33
2023-03-06T05:27:30.241Z,28.25
2023-03-06T05:29:56.899Z,31.30
2023-03-06T05:32:23.825Z,29.42
2023-03-06T05:34:51.194Z,29.60
2023-03-06T05:37:17.912Z,29.33
2023-03-06T05:39:44.774Z,27.33
2023-03-06T05:42:12.411Z,32.20
2023-03-06T05:44:39.127Z,38.47
2023-03-06T05:47:05.988Z,29.45
2023-03-06T05:49:37.562Z,30.02
2023-03-06T05:52:05.627Z,32.63
2023-03-06T05:54:34.220Z,35.35
2023-03-06T05:57:01.378Z,36.88
2023-03-06T05:59:29.255Z,33.42
2023-03-06T06:01:56.531Z,32.95
2023-03-06T06:04:26.456Z,40.85
2023-03-06T06:06:53.533Z,30.05
2023-03-06T06:09:21.068Z,36.03
2023-03-06T06:11:47.940Z,33.10
2023-03-06T06:14:15.172Z,34.47
2023-03-06T06:16:42.804Z,32.65
2023-03-06T06:19:09.472Z,36.30
2023-03-06T06:21:36.247Z,35.65
2023-03-06T06:24:03.072Z,34.55
2023-03-06T06:26:29.852Z,33.70
2023-03-06T06:28:57.657Z,33.45
2023-03-06T06:31:25.816Z,36.38
2023-03-06T06:36:21.424Z,34.60
2023-03-06T06:38:52.076Z,33.08
2023-03-06T06:41:39.286Z,32.72
2023-03-06T06:44:08.606Z,34.63
2023-03-06T06:49:18.984Z,31.30
2023-03-06T06:51:46.283Z,31.05
2023-03-06T06:54:13.068Z,33.30
2023-03-06T06:56:40.498Z,32.90
2023-03-06T06:59:16.667Z,36.67
2023-03-06T07:01:44.508Z,33.10
2023-03-06T07:04:14.431Z,33.75
2023-03-06T07:06:42.897Z,31.90
2023-03-06T07:09:10.220Z,31.38
2023-03-06T07:11:38.392Z,28.83
2023-03-06T07:14:05.250Z,31.20
2023-03-06T07:16:32.075Z,31.67
2023-03-06T07:18:59.844Z,38.00
2023-03-06T07:21:27.214Z,29.73
2023-03-06T07:23:54.545Z,30.95
2023-03-06T07:26:21.259Z,32.08
2023-03-06T07:31:19.427Z,33.97
2023-03-06T07:33:46.197Z,29.65
2023-03-06T07:36:14.032Z,35.45
2023-03-06T07:38:40.917Z,25.67
2023-03-06T07:41:13.357Z,33.90
2023-03-06T07:43:45.283Z,31.40
2023-03-06T07:46:14.554Z,28.05
2023-03-06T07:48:42.229Z,35.33
2023-03-06T07:51:15.415Z,35.47
2023-03-06T07:53:43.197Z,36.10
2023-03-06T07:56:12.010Z,37.10
2023-03-06T07:58:41.480Z,34.80
2023-03-06T08:01:11.081Z,35.63
2023-03-06T08:03:37.986Z,35.10
2023-03-06T08:06:09.077Z,35.28
2023-03-06T08:08:37.894Z,35.97
2023-03-06T08:11:04.810Z,39.80
2023-03-06T08:13:31.519Z,36.72
2023-03-06T08:15:59.943Z,37.47
2023-03-06T08:18:27.877Z,39.85
2023-03-06T08:21:06.608Z,34.20
2023-03-06T08:23:34.310Z,36.75
2023-03-06T08:26:04.825Z,37.67
2023-03-06T08:28:32.035Z,33.65
2023-03-06T08:30:59.185Z,34.30
2023-03-06T08:33:26.012Z,34.97
2023-03-06T08:36:03.770Z,41.97
2023-03-06T08:38:30.630Z,32.20
2023-03-06T08:40:57.773Z,41.50
2023-03-06T08:43:24.449Z,32.70
2023-03-06T08:45:53.675Z,34.67
2023-03-06T08:48:23.911Z,33.50
2023-03-06T08:50:50.716Z,28.17
2023-03-06T08:53:18.084Z,29.95
2023-03-06T08:55:45.265Z,29.10
2023-03-06T08:58:12.303Z,31.98
2023-03-06T09:00:42.011Z,32.08
2023-03-06T09:03:08.757Z,32.28
2023-03-06T09:05:35.659Z,29.17
2023-03-06T09:08:05.284Z,29.63
2023-03-06T09:10:32.257Z,27.25
2023-03-06T09:12:59.412Z,27.13
2023-03-06T09:15:26.615Z,33.28
2023-03-06T09:17:54.638Z,31.90
2023-03-06T09:20:21.628Z,23.40
2023-03-06T09:22:48.324Z,25.95
2023-03-06T09:25:20.308Z,29.63
2023-03-06T09:27:55.441Z,25.25
2023-03-06T09:30:19.186Z,33.63
2023-03-06T09:32:45.890Z,27.67
2023-03-06T09:35:14.607Z,24.38
2023-03-06T09:37:42.075Z,23.08
2023-03-06T09:40:22.211Z,24.85
2023-03-06T09:42:48.929Z,24.33
2023-03-06T09:45:15.704Z,24.40
2023-03-06T09:47:54.577Z,22.70
2023-03-06T09:50:33.298Z,23.98
2023-03-06T09:53:39.433Z,18.83
2023-03-06T09:56:20.372Z,20.95
2023-03-06T10:01:27.635Z,21.58
2023-03-06T10:04:16.456Z,22.92
2023-03-06T10:06:48.537Z,25.98
2023-03-06T10:09:20.522Z,21.73
2023-03-06T10:11:54.701Z,23.15
2023-03-06T10:14:36.944Z,20.55
2023-03-06T10:17:05.658Z,23.50
2023-03-06T10:19:38.303Z,24.38
2023-03-06T10:22:23.478Z,23.15
2023-03-06T10:24:54.675Z,17.42
2023-03-06T10:27:47.963Z,24.90
2023-03-06T10:30:41.654Z,20.30
2023-03-06T10:33:31.569Z,21.73
2023-03-06T10:35:58.728Z,18.23
2023-03-06T10:38:31.416Z,20.25
2023-03-06T10:41:01.182Z,24.00
2023-03-06T10:43:28.343Z,22.70
2023-03-06T10:45:55.161Z,19.80
2023-03-06T10:48:25.653Z,23.05
2023-03-06T10:53:26.374Z,18.58
2023-03-06T10:55:56.202Z,23.70
2023-03-06T10:58:31.482Z,25.05
2023-03-06T11:01:22.535Z,28.02
2023-03-06T11:03:49.964Z,29.17
2023-03-06T11:06:34.890Z,23.25
2023-03-06T11:09:23.798Z,28.70
2023-03-06T11:11:52.113Z,30.25
2023-03-06T11:14:23.169Z,25.67
2023-03-06T11:16:55.006Z,28.15
2023-03-06T11:19:28.183Z,24.13
2023-03-06T11:22:16.656Z,27.33
2023-03-06T11:24:48.582Z,24.02
2023-03-06T11:27:35.005Z,21.73
2023-03-06T11:30:14.784Z,21.77
2023-03-06T11:32:54.693Z,23.58
2023-03-06T11:35:25.024Z,27.58
2023-03-06T11:37:53.776Z,23.42
2023-03-06T11:40:36.469Z,23.35
2023-03-06T11:43:16.243Z,21.55
2023-03-06T11:45:46.481Z,21.20
2023-03-06T11:48:18.359Z,18.80
2023-03-06T11:50:48.142Z,20.83
2023-03-06T11:53:21.510Z,21.25
2023-03-06T11:55:54.727Z,18.60
2023-03-06T11:58:52.272Z,19.58
2023-03-06T12:01:21.673Z,21.00
2023-03-06T12:03:56.925Z,22.88
2023-03-06T12:06:49.514Z,19.55
2023-03-06T12:09:25.952Z,21.00
2023-03-06T12:11:55.142Z,18.38
2023-03-06T12:14:43.915Z,19.35
2023-03-06T12:17:25.659Z,20.35
2023-03-06T12:19:54.831Z,21.73
2023-03-06T12:22:37.358Z,21.95
2023-03-06T12:25:10.266Z,18.05
2023-03-06T12:27:46.267Z,24.92
2023-03-06T12:30:28.009Z,22.60
2023-03-06T12:32:57.877Z,20.30
2023-03-06T12:35:54.887Z,18.80
2023-03-06T12:38:24.856Z,18.20
2023-03-06T12:40:54.864Z,17.55
2023-03-06T12:43:36.498Z,18.52
2023-03-06T12:46:12.401Z,20.40
2023-03-06T12:48:42.699Z,23.55
2023-03-06T12:51:13.886Z,23.98
2023-03-06T12:53:41.467Z,22.95
2023-03-06T12:56:09.197Z,22.40
2023-03-06T12:58:48.120Z,19.65
2023-03-06T13:01:45.672Z,18.42
2023-03-06T13:04:40.159Z,21.30
2023-03-06T13:07:15.768Z,21.95
2023-03-06T13:09:53.881Z,21.50
2023-03-06T13:12:49.955Z,19.42
2023-03-06T13:15:35.134Z,22.00
2023-03-06T13:18:22.097Z,22.50
2023-03-06T13:20:49.778Z,25.45
2023-03-06T13:23:37.977Z,23.13
2023-03-06T13:26:09.914Z,25.83
2023-03-06T13:28:51.211Z,25.85
2023-03-06T13:31:33.350Z,22.27
2023-03-06T13:34:03.602Z,22.88
2023-03-06T13:36:36.698Z,21.85
2023-03-06T13:39:09.808Z,25.60
2023-03-06T13:41:45.556Z,22.73
2023-03-06T13:44:24.657Z,20.75
2023-03-06T13:46:53.784Z,20.05
2023-03-06T13:49:24.291Z,20.92
2023-03-06T13:51:54.724Z,23.23
2023-03-06T13:54:54.791Z,21.33
2023-03-06T13:57:27.655Z,23.23
2023-03-06T14:00:03.050Z,21.83
2023-03-06T14:05:19.807Z,28.50
2023-03-06T14:07:49.371Z,35.78
2023-03-06T14:10:25.529Z,31.45
2023-03-06T14:15:22.612Z,24.92
2023-03-06T14:17:54.799Z,24.05
2023-03-06T14:20:26.825Z,22.08
2023-03-06T14:25:32.067Z,20.20
2023-03-06T14:28:09.111Z,23.38
2023-03-06T14:30:49.574Z,26.45
2023-03-06T14:33:34.968Z,18.77
2023-03-06T14:36:08.293Z,26.35
2023-03-06T14:38:42.531Z,22.45
2023-03-06T14:41:11.789Z,20.75
2023-03-06T14:43:40.122Z,22.63
2023-03-06T14:46:07.150Z,21.83
2023-03-06T14:48:43.077Z,16.35
2023-03-06T14:51:25.698Z,21.67
2023-03-06T14:53:54.815Z,22.17
2023-03-06T14:56:27.463Z,16.27
2023-03-06T14:59:01.621Z,16.05
2023-03-06T15:01:40.510Z,18.50
2023-03-06T15:04:28.551Z,17.65
2023-03-06T15:06:57.185Z,18.48
2023-03-06T15:09:32.788Z,18.60
2023-03-06T15:12:31.275Z,16.88
2023-03-06T15:15:04.373Z,15.75
2023-03-06T15:17:38.493Z,19.50
2023-03-06T15:20:08.522Z,16.85
2023-03-06T15:22:40.769Z,17.13
2023-03-06T15:25:16.240Z,19.50
2023-03-06T15:27:50.213Z,20.73
2023-03-06T15:30:31.716Z,17.80
2023-03-06T15:33:19.456Z,16.58
2023-03-06T15:35:53.965Z,18.65
2023-03-06T15:38:25.516Z,19.75
2023-03-06T15:40:53.871Z,23.85
2023-03-06T15:43:21.050Z,19.45
2023-03-06T15:45:47.853Z,22.08
2023-03-06T15:48:17.738Z,21.27
2023-03-06T15:50:44.879Z,22.77
2023-03-06T15:53:11.614Z,20.40
2023-03-06T15:55:38.998Z,17.60
2023-03-06T15:58:05.864Z,18.65
2023-03-06T16:00:35.701Z,20.05
2023-03-06T16:03:03.339Z,19.20
2023-03-06T16:05:30.838Z,18.48
2023-03-06T16:07:57.800Z,21.17
2023-03-06T16:10:27.675Z,23.15
2023-03-06T16:12:55.838Z,19.58
2023-03-06T16:15:30.573Z,19.38
2023-03-06T16:17:58.430Z,24.35
2023-03-06T16:20:28.077Z,22.33
2023-03-06T16:22:55.639Z,16.67
2023-03-06T16:25:24.885Z,20.45
2023-03-06T16:27:58.139Z,19.80
2023-03-06T16:30:28.351Z,21.73
2023-03-06T16:32:55.024Z,20.20
2023-03-06T16:35:22.507Z,19.88
2023-03-06T16:37:50.197Z,23.00
2023-03-06T16:40:32.780Z,20.27
2023-03-06T16:42:59.712Z,22.85
2023-03-06T16:45:27.049Z,21.00
2023-03-06T16:50:33.803Z,19.55
2023-03-06T16:53:01.716Z,19.42
2023-03-06T16:55:29.114Z,19.95
2023-03-06T16:57:56.167Z,14.75
2023-03-06T17:00:25.226Z,16.55
2023-03-06T17:05:20.140Z,19.42
2023-03-06T17:07:47.453Z,23.02
2023-03-06T17:10:16.517Z,18.67
2023-03-06T17:12:44.087Z,20.65
2023-03-06T17:15:11.746Z,15.93
2023-03-06T17:17:38.474Z,18.73
2023-03-06T17:20:08.523Z,31.15
2023-03-06T17:22:36.437Z,33.25
2023-03-06T17:25:08.362Z,19.55
2023-03-06T17:27:35.958Z,23.60
2023-03-06T17:30:02.952Z,20.58
2023-03-06T17:32:29.731Z,23.73
2023-03-06T17:34:56.970Z,23.50
2023-03-06T17:37:23.859Z,20.67
2023-03-06T17:39:51.544Z,23.77
2023-03-06T17:42:18.618Z,26.00
2023-03-06T17:44:45.338Z,22.67
2023-03-06T17:47:12.446Z,24.25
2023-03-06T17:49:39.294Z,23.42
2023-03-06T17:52:06.765Z,25.25
2023-03-06T17:54:34.799Z,23.02
2023-03-06T17:57:03.724Z,25.75
2023-03-06T17:59:34.084Z,25.73
2023-03-06T18:02:02.148Z,21.60
2023-03-06T18:04:29.691Z,26.77
2023-03-06T18:06:59.189Z,24.48
2023-03-06T18:09:26.663Z,23.10
2023-03-06T18:11:55.205Z,19.52
2023-03-06T18:14:22.293Z,24.65
2023-03-06T18:16:49.228Z,24.73
2023-03-06T18:19:16.627Z,24.83
2023-03-06T18:21:43.723Z,26.75
2023-03-06T18:24:11.599Z,24.23
2023-03-06T18:26:42.600Z,22.90
2023-03-06T18:29:09.488Z,22.92
2023-03-06T18:31:41.686Z,26.25
2023-03-06T18:34:12.282Z,26.98
2023-03-06T18:36:40.381Z,24.02
2023-03-06T18:39:09.749Z,27.27
2023-03-06T18:41:37.306Z,23.48
2023-03-06T18:44:05.477Z,26.15
2023-03-06T18:46:35.901Z,24.95
2023-03-06T18:49:03.075Z,25.38
2023-03-06T18:51:31.963Z,26.83
2023-03-06T18:54:00.639Z,24.05
2023-03-06T18:56:28.220Z,26.08
2023-03-06T18:58:55.640Z,27.80
2023-03-06T19:01:23.131Z,24.70
2023-03-06T19:03:50.416Z,28.90
2023-03-06T19:06:17.628Z,27.40
2023-03-06T19:08:44.746Z,26.60
2023-03-06T19:11:15.797Z,27.55
2023-03-06T19:13:42.956Z,24.40
2023-03-06T19:16:23.621Z,31.27
2023-03-06T19:18:50.764Z,26.42
2023-03-06T19:21:22.812Z,27.25
2023-03-06T19:23:49.754Z,32.40
2023-03-06T19:26:18.935Z,29.35
2023-03-06T19:28:46.579Z,25.98
2023-03-06T19:31:21.278Z,28.52
2023-03-06T19:33:49.559Z,30.70
2023-03-06T19:36:18.335Z,32.22
2023-03-06T19:41:19.555Z,29.45
2023-03-06T19:43:52.443Z,30.27
2023-03-06T19:46:20.387Z,27.55
2023-03-06T19:48:47.683Z,25.30
2023-03-06T19:51:14.663Z,28.67
2023-03-06T19:53:42.161Z,27.60
2023-03-06T19:56:21.688Z,24.55
2023-03-06T19:58:48.813Z,24.58
2023-03-06T20:01:20.664Z,27.23
2023-03-06T20:03:49.668Z,27.17
2023-03-06T20:06:19.373Z,28.67
2023-03-06T20:08:47.430Z,29.25
2023-03-06T20:11:21.709Z,21.10
2023-03-06T20:13:48.762Z,29.02
2023-03-06T20:16:19.063Z,28.73
2023-03-06T20:18:46.201Z,27.70
2023-03-06T20:21:13.943Z,28.13
2023-03-06T20:23:41.351Z,24.00
2023-03-06T20:26:10.969Z,27.85
2023-03-06T20:28:39.365Z,30.75
2023-03-06T20:31:11.348Z,28.83
2023-03-06T20:33:38.160Z,28.38
2023-03-06T20:36:11.671Z,26.83
2023-03-06T20:38:39.246Z,27.02
2023-03-06T20:41:09.127Z,26.83
2023-03-06T20:43:36.112Z,28.98
2023-03-06T20:46:04.281Z,26.73
2023-03-06T20:48:31.924Z,25.25
2023-03-06T20:51:06.217Z,25.08
2023-03-06T20:53:35.328Z,29.55
2023-03-06T20:56:05.312Z,28.38
2023-03-06T20:58:32.729Z,25.50
2023-03-06T21:01:02.026Z,24.65
2023-03-06T21:03:29.574Z,30.05
2023-03-06T21:05:57.105Z,26.98
2023-03-06T21:08:24.158Z,26.65
2023-03-06T21:10:51.269Z,32.75
2023-03-06T21:13:18.097Z,27.00
2023-03-06T21:15:47.614Z,28.08
2023-03-06T21:18:14.500Z,30.05
2023-03-06T21:20:41.887Z,29.17
2023-03-06T21:23:09.406Z,27.42
2023-03-06T21:25:37.041Z,30.35
2023-03-06T21:28:03.888Z,27.58
2023-03-06T21:30:30.674Z,27.50
2023-03-06T21:32:57.400Z,27.88
2023-03-06T21:35:24.128Z,21.88
2023-03-06T21:37:50.990Z,27.63
2023-03-06T21:40:17.802Z,29.65
2023-03-06T21:42:44.582Z,27.85
2023-03-06T21:45:12.193Z,29.27
2023-03-06T21:47:39.131Z,26.48
2023-03-06T21:50:08.484Z,27.30
2023-03-06T21:52:37.475Z,28.10
2023-03-06T21:55:05.046Z,25.42
2023-03-06T21:57:31.803Z,26.63
2023-03-06T21:59:58.728Z,31.20
2023-03-06T22:02:29.368Z,26.48
2023-03-06T22:04:56.004Z,29.30
2023-03-06T22:07:23.191Z,25.23
2023-03-06T22:12:19.636Z,25.60
2023-03-06T22:14:46.320Z,25.90
2023-03-06T22:17:13.349Z,26.02
2023-03-06T22:19:40.166Z,25.85
2023-03-06T22:22:07.589Z,28.13
2023-03-06T22:24:35.415Z,28.08
2023-03-06T22:27:02.088Z,26.48
2023-03-06T22:29:28.832Z,26.75
2023-03-06T22:31:55.600Z,27.30
2023-03-06T22:34:22.719Z,31.27
2023-03-06T22:36:49.535Z,28.40
2023-03-06T22:39:16.295Z,26.95
2023-03-06T22:41:42.988Z,27.52
2023-03-06T22:44:15.802Z,27.00
2023-03-06T22:46:42.539Z,23.77
2023-03-06T22:49:11.328Z,27.27
2023-03-06T22:51:38.377Z,31.90
2023-03-06T22:54:06.121Z,20.98
2023-03-06T22:56:33.412Z,30.85
2023-03-06T22:59:00.676Z,29.30
2023-03-06T23:01:30.708Z,27.52
2023-03-06T23:04:00.152Z,27.00
2023-03-06T23:06:37.241Z,26.60
2023-03-06T23:09:16.352Z,24.45
2023-03-06T23:11:43.179Z,26.83
2023-03-06T23:14:12.528Z,29.20
2023-03-06T23:16:39.608Z,26.00
2023-03-06T23:19:06.888Z,30.50
2023-03-06T23:21:34.649Z,27.35
2023-03-06T23:24:01.958Z,25.70
2023-03-06T23:26:30.499Z,32.95
2023-03-06T23:29:01.430Z,28.40
2023-03-06T23:31:30.456Z,28.42
2023-03-06T23:33:59.591Z,27.70
2023-03-06T23:36:27.637Z,30.58
2023-03-06T23:38:55.648Z,27.05
2023-03-06T23:41:27.101Z,31.27
2023-03-06T23:46:19.975Z,26.98
2023-03-06T23:48:46.761Z,28.65
2023-03-06T23:51:19.126Z,29.02
2023-03-06T23:53:47.151Z,27.67
2023-03-06T23:56:14.402Z,28.50
2023-03-06T23:58:41.349Z,28.15
